sensor_id;sensor_type;location;lat;lon;timestamp;P1;durP1;ratioP1;P2;durP2;ratioP2
52918;SDS011;38793;52.690;6.812;2024-02-04T00:00:26;33.63;;;13.20;;
52918;SDS011;38793;52.690;6.812;2024-02-04T00:02:52;36.07;;;14.80;;
52918;SDS011;38793;52.690;6.812;2024-02-04T00:05:17;32.83;;;14.33;;
52918;SDS011;38793;52.690;6.812;2024-02-04T00:07:43;31.60;;;12.65;;
52918;SDS011;38793;52.690;6.812;2024-02-04T00:10:09;28.92;;;12.88;;
52918;SDS011;38793;52.690;6.812;2024-02-04T00:12:35;29.48;;;12.70;;
52918;SDS011;38793;52.690;6.812;2024-02-04T00:15:01;31.17;;;11.87;;
52918;SDS011;38793;52.690;6.812;2024-02-04T00:17:29;23.90;;;10.20;;
52918;SDS011;38793;52.690;6.812;2024-02-04T00:19:57;18.17;;;8.52;;
52918;SDS011;38793;52.690;6.812;2024-02-04T00:22:24;23.38;;;11.13;;
52918;SDS011;38793;52.690;6.812;2024-02-04T00:24:49;27.63;;;9.20;;
52918;SDS011;38793;52.690;6.812;2024-02-04T00:27:15;19.25;;;7.43;;
52918;SDS011;38793;52.690;6.812;2024-02-04T00:29:41;23.73;;;8.15;;
52918;SDS011;38793;52.690;6.812;2024-02-04T00:32:06;22.57;;;8.03;;
52918;SDS011;38793;52.690;6.812;2024-02-04T00:34:32;27.33;;;9.50;;
52918;SDS011;38793;52.690;6.812;2024-02-04T00:36:57;16.63;;;7.67;;
52918;SDS011;38793;52.690;6.812;2024-02-04T00:39:24;18.27;;;7.15;;
52918;SDS011;38793;52.690;6.812;2024-02-04T00:41:49;20.23;;;6.93;;
52918;SDS011;38793;52.690;6.812;2024-02-04T00:44:15;18.43;;;7.60;;
52918;SDS011;38793;52.690;6.812;2024-02-04T00:46:40;19.80;;;7.10;;
52918;SDS011;38793;52.690;6.812;2024-02-04T00:49:06;23.67;;;6.90;;
52918;SDS011;38793;52.690;6.812;2024-02-04T00:51:31;14.77;;;8.37;;
52918;SDS011;38793;52.690;6.812;2024-02-04T00:53:57;19.52;;;7.82;;
52918;SDS011;38793;52.690;6.812;2024-02-04T00:56:23;18.33;;;8.40;;
52918;SDS011;38793;52.690;6.812;2024-02-04T00:58:49;24.77;;;8.73;;
52918;SDS011;38793;52.690;6.812;2024-02-04T01:01:14;18.90;;;7.93;;
52918;SDS011;38793;52.690;6.812;2024-02-04T01:03:40;23.77;;;8.83;;
52918;SDS011;38793;52.690;6.812;2024-02-04T01:06:06;22.87;;;8.57;;
52918;SDS011;38793;52.690;6.812;2024-02-04T01:08:31;30.45;;;9.00;;
52918;SDS011;38793;52.690;6.812;2024-02-04T01:10:57;20.73;;;8.97;;
52918;SDS011;38793;52.690;6.812;2024-02-04T01:13:23;21.05;;;7.35;;
52918;SDS011;38793;52.690;6.812;2024-02-04T01:15:48;28.52;;;8.30;;
52918;SDS011;38793;52.690;6.812;2024-02-04T01:18:14;27.40;;;7.83;;
52918;SDS011;38793;52.690;6.812;2024-02-04T01:20:39;17.70;;;7.27;;
52918;SDS011;38793;52.690;6.812;2024-02-04T01:23:05;21.30;;;7.17;;
52918;SDS011;38793;52.690;6.812;2024-02-04T01:25:31;18.03;;;7.63;;
52918;SDS011;38793;52.690;6.812;2024-02-04T01:27:56;19.70;;;5.97;;
52918;SDS011;38793;52.690;6.812;2024-02-04T01:30:22;18.37;;;7.97;;
52918;SDS011;38793;52.690;6.812;2024-02-04T01:32:47;20.73;;;6.93;;
52918;SDS011;38793;52.690;6.812;2024-02-04T01:35:13;19.47;;;6.17;;
52918;SDS011;38793;52.690;6.812;2024-02-04T01:37:40;12.57;;;5.53;;
52918;SDS011;38793;52.690;6.812;2024-02-04T01:40:06;21.37;;;5.83;;
52918;SDS011;38793;52.690;6.812;2024-02-04T01:42:32;12.57;;;3.70;;
52918;SDS011;38793;52.690;6.812;2024-02-04T01:44:58;16.80;;;4.73;;
52918;SDS011;38793;52.690;6.812;2024-02-04T01:47:24;13.20;;;4.50;;
52918;SDS011;38793;52.690;6.812;2024-02-04T01:49:49;14.07;;;3.35;;
52918;SDS011;38793;52.690;6.812;2024-02-04T01:52:15;13.13;;;3.38;;
52918;SDS011;38793;52.690;6.812;2024-02-04T01:54:42;12.35;;;3.15;;
52918;SDS011;38793;52.690;6.812;2024-02-04T01:57:09;13.00;;;3.53;;
52918;SDS011;38793;52.690;6.812;2024-02-04T01:59:37;18.25;;;3.88;;
52918;SDS011;38793;52.690;6.812;2024-02-04T02:02:04;13.90;;;3.60;;
52918;SDS011;38793;52.690;6.812;2024-02-04T02:04:31;15.50;;;3.85;;
52918;SDS011;38793;52.690;6.812;2024-02-04T02:06:56;11.80;;;3.75;;
52918;SDS011;38793;52.690;6.812;2024-02-04T02:09:24;12.98;;;4.35;;
52918;SDS011;38793;52.690;6.812;2024-02-04T02:12:07;14.57;;;4.07;;
52918;SDS011;38793;52.690;6.812;2024-02-04T02:17:07;20.67;;;4.97;;
52918;SDS011;38793;52.690;6.812;2024-02-04T02:19:47;14.30;;;4.53;;
52918;SDS011;38793;52.690;6.812;2024-02-04T02:22:29;20.25;;;5.93;;
52918;SDS011;38793;52.690;6.812;2024-02-04T02:25:04;13.88;;;6.28;;
52918;SDS011;38793;52.690;6.812;2024-02-04T02:27:32;21.08;;;6.75;;
52918;SDS011;38793;52.690;6.812;2024-02-04T02:29:57;15.63;;;6.23;;
52918;SDS011;38793;52.690;6.812;2024-02-04T02:32:23;19.20;;;6.80;;
52918;SDS011;38793;52.690;6.812;2024-02-04T02:34:49;20.42;;;8.32;;
52918;SDS011;38793;52.690;6.812;2024-02-04T02:37:29;19.92;;;9.10;;
52918;SDS011;38793;52.690;6.812;2024-02-04T02:40:26;16.05;;;9.10;;
52918;SDS011;38793;52.690;6.812;2024-02-04T02:42:55;22.05;;;11.02;;
52918;SDS011;38793;52.690;6.812;2024-02-04T02:45:22;27.38;;;10.57;;
52918;SDS011;38793;52.690;6.812;2024-02-04T02:47:50;20.85;;;9.73;;
52918;SDS011;38793;52.690;6.812;2024-02-04T02:50:16;24.27;;;10.00;;
52918;SDS011;38793;52.690;6.812;2024-02-04T02:52:42;22.23;;;10.57;;
52918;SDS011;38793;52.690;6.812;2024-02-04T02:55:08;24.70;;;9.70;;
52918;SDS011;38793;52.690;6.812;2024-02-04T02:57:34;18.63;;;9.77;;
52918;SDS011;38793;52.690;6.812;2024-02-04T02:59:59;25.20;;;11.80;;
52918;SDS011;38793;52.690;6.812;2024-02-04T03:02:25;18.03;;;11.07;;
52918;SDS011;38793;52.690;6.812;2024-02-04T03:04:51;25.47;;;11.17;;
52918;SDS011;38793;52.690;6.812;2024-02-04T03:07:16;24.90;;;10.07;;
52918;SDS011;38793;52.690;6.812;2024-02-04T03:09:42;13.67;;;8.23;;
52918;SDS011;38793;52.690;6.812;2024-02-04T03:14:34;21.38;;;9.35;;
52918;SDS011;38793;52.690;6.812;2024-02-04T03:16:59;19.10;;;7.93;;
52918;SDS011;38793;52.690;6.812;2024-02-04T03:19:25;17.10;;;7.80;;
52918;SDS011;38793;52.690;6.812;2024-02-04T03:21:51;19.70;;;8.43;;
52918;SDS011;38793;52.690;6.812;2024-02-04T03:24:16;22.30;;;7.67;;
52918;SDS011;38793;52.690;6.812;2024-02-04T03:26:42;18.47;;;7.47;;
52918;SDS011;38793;52.690;6.812;2024-02-04T03:29:07;14.77;;;7.43;;
52918;SDS011;38793;52.690;6.812;2024-02-04T03:31:33;16.75;;;6.80;;
52918;SDS011;38793;52.690;6.812;2024-02-04T03:33:59;15.17;;;8.43;;
52918;SDS011;38793;52.690;6.812;2024-02-04T03:36:24;16.30;;;6.13;;
52918;SDS011;38793;52.690;6.812;2024-02-04T03:38:50;16.63;;;6.93;;
52918;SDS011;38793;52.690;6.812;2024-02-04T03:41:16;14.35;;;7.35;;
52918;SDS011;38793;52.690;6.812;2024-02-04T03:43:42;13.23;;;6.68;;
52918;SDS011;38793;52.690;6.812;2024-02-04T03:46:12;20.65;;;6.22;;
52918;SDS011;38793;52.690;6.812;2024-02-04T03:48:41;17.13;;;5.97;;
52918;SDS011;38793;52.690;6.812;2024-02-04T03:51:07;8.45;;;4.70;;
52918;SDS011;38793;52.690;6.812;2024-02-04T03:53:33;19.00;;;4.77;;
52918;SDS011;38793;52.690;6.812;2024-02-04T03:55:59;12.70;;;4.00;;
52918;SDS011;38793;52.690;6.812;2024-02-04T03:58:24;9.90;;;3.73;;
52918;SDS011;38793;52.690;6.812;2024-02-04T04:00:54;19.73;;;3.97;;
52918;SDS011;38793;52.690;6.812;2024-02-04T04:03:21;10.20;;;3.20;;
52918;SDS011;38793;52.690;6.812;2024-02-04T04:05:47;12.30;;;2.83;;
52918;SDS011;38793;52.690;6.812;2024-02-04T04:08:13;12.37;;;2.57;;
52918;SDS011;38793;52.690;6.812;2024-02-04T04:10:38;11.50;;;2.80;;
52918;SDS011;38793;52.690;6.812;2024-02-04T04:13:04;8.60;;;1.73;;
52918;SDS011;38793;52.690;6.812;2024-02-04T04:15:30;8.87;;;1.83;;
52918;SDS011;38793;52.690;6.812;2024-02-04T04:17:55;6.40;;;1.73;;
52918;SDS011;38793;52.690;6.812;2024-02-04T04:20:21;13.10;;;2.27;;
52918;SDS011;38793;52.690;6.812;2024-02-04T04:22:46;11.73;;;2.43;;
52918;SDS011;38793;52.690;6.812;2024-02-04T04:25:12;16.63;;;1.67;;
52918;SDS011;38793;52.690;6.812;2024-02-04T04:27:39;10.73;;;2.50;;
52918;SDS011;38793;52.690;6.812;2024-02-04T04:30:04;11.63;;;1.93;;
52918;SDS011;38793;52.690;6.812;2024-02-04T04:32:30;11.73;;;1.70;;
52918;SDS011;38793;52.690;6.812;2024-02-04T04:34:57;15.10;;;2.40;;
52918;SDS011;38793;52.690;6.812;2024-02-04T04:37:23;12.05;;;2.67;;
52918;SDS011;38793;52.690;6.812;2024-02-04T04:39:48;12.13;;;2.00;;
52918;SDS011;38793;52.690;6.812;2024-02-04T04:42:14;11.63;;;2.17;;
52918;SDS011;38793;52.690;6.812;2024-02-04T04:44:39;6.67;;;1.77;;
52918;SDS011;38793;52.690;6.812;2024-02-04T04:47:05;12.80;;;1.42;;
52918;SDS011;38793;52.690;6.812;2024-02-04T04:49:31;11.80;;;1.73;;
52918;SDS011;38793;52.690;6.812;2024-02-04T04:51:56;11.57;;;1.77;;
52918;SDS011;38793;52.690;6.812;2024-02-04T04:54:22;8.93;;;2.83;;
52918;SDS011;38793;52.690;6.812;2024-02-04T04:56:48;12.07;;;1.70;;
52918;SDS011;38793;52.690;6.812;2024-02-04T04:59:14;13.25;;;1.73;;
52918;SDS011;38793;52.690;6.812;2024-02-04T05:01:45;11.25;;;1.83;;
52918;SDS011;38793;52.690;6.812;2024-02-04T05:04:13;10.02;;;1.90;;
52918;SDS011;38793;52.690;6.812;2024-02-04T05:06:40;4.18;;;1.77;;
52918;SDS011;38793;52.690;6.812;2024-02-04T05:09:05;10.00;;;2.80;;
52918;SDS011;38793;52.690;6.812;2024-02-04T05:11:31;10.53;;;1.27;;
52918;SDS011;38793;52.690;6.812;2024-02-04T05:13:57;11.60;;;2.78;;
52918;SDS011;38793;52.690;6.812;2024-02-04T05:16:22;10.97;;;1.80;;
52918;SDS011;38793;52.690;6.812;2024-02-04T05:18:48;7.60;;;1.75;;
52918;SDS011;38793;52.690;6.812;2024-02-04T05:21:14;17.33;;;1.98;;
52918;SDS011;38793;52.690;6.812;2024-02-04T05:23:39;9.37;;;1.20;;
52918;SDS011;38793;52.690;6.812;2024-02-04T05:26:05;10.50;;;2.07;;
52918;SDS011;38793;52.690;6.812;2024-02-04T05:28:31;8.95;;;1.50;;
52918;SDS011;38793;52.690;6.812;2024-02-04T05:30:57;9.15;;;2.47;;
52918;SDS011;38793;52.690;6.812;2024-02-04T05:33:23;11.07;;;1.37;;
52918;SDS011;38793;52.690;6.812;2024-02-04T05:35:48;10.43;;;1.93;;
52918;SDS011;38793;52.690;6.812;2024-02-04T05:38:15;13.23;;;1.45;;
52918;SDS011;38793;52.690;6.812;2024-02-04T05:40:41;8.65;;;1.48;;
52918;SDS011;38793;52.690;6.812;2024-02-04T05:43:07;11.27;;;1.65;;
52918;SDS011;38793;52.690;6.812;2024-02-04T05:45:35;13.10;;;2.13;;
52918;SDS011;38793;52.690;6.812;2024-02-04T05:48:10;15.00;;;1.52;;
52918;SDS011;38793;52.690;6.812;2024-02-04T05:50:36;14.38;;;1.75;;
52918;SDS011;38793;52.690;6.812;2024-02-04T05:53:02;13.38;;;1.17;;
52918;SDS011;38793;52.690;6.812;2024-02-04T05:55:28;11.00;;;1.30;;
52918;SDS011;38793;52.690;6.812;2024-02-04T05:57:54;11.75;;;1.58;;
52918;SDS011;38793;52.690;6.812;2024-02-04T06:00:19;14.55;;;1.85;;
52918;SDS011;38793;52.690;6.812;2024-02-04T06:02:45;12.63;;;1.55;;
52918;SDS011;38793;52.690;6.812;2024-02-04T06:05:11;12.97;;;1.33;;
52918;SDS011;38793;52.690;6.812;2024-02-04T06:07:38;9.30;;;1.13;;
52918;SDS011;38793;52.690;6.812;2024-02-04T06:10:04;9.73;;;1.67;;
52918;SDS011;38793;52.690;6.812;2024-02-04T06:12:30;9.13;;;1.60;;
52918;SDS011;38793;52.690;6.812;2024-02-04T06:14:56;12.45;;;1.10;;
52918;SDS011;38793;52.690;6.812;2024-02-04T06:17:22;10.93;;;1.70;;
52918;SDS011;38793;52.690;6.812;2024-02-04T06:19:47;8.90;;;0.90;;
52918;SDS011;38793;52.690;6.812;2024-02-04T06:22:14;13.13;;;1.90;;
52918;SDS011;38793;52.690;6.812;2024-02-04T06:24:41;12.27;;;1.20;;
52918;SDS011;38793;52.690;6.812;2024-02-04T06:27:10;7.73;;;1.53;;
52918;SDS011;38793;52.690;6.812;2024-02-04T06:29:36;11.50;;;2.38;;
52918;SDS011;38793;52.690;6.812;2024-02-04T06:32:04;13.18;;;2.50;;
52918;SDS011;38793;52.690;6.812;2024-02-04T06:34:30;8.07;;;1.50;;
52918;SDS011;38793;52.690;6.812;2024-02-04T06:36:55;12.50;;;1.23;;
52918;SDS011;38793;52.690;6.812;2024-02-04T06:39:21;16.70;;;1.53;;
52918;SDS011;38793;52.690;6.812;2024-02-04T06:41:47;9.93;;;1.27;;
52918;SDS011;38793;52.690;6.812;2024-02-04T06:44:13;12.00;;;1.23;;
52918;SDS011;38793;52.690;6.812;2024-02-04T06:46:38;14.57;;;2.08;;
52918;SDS011;38793;52.690;6.812;2024-02-04T06:49:04;15.37;;;2.20;;
52918;SDS011;38793;52.690;6.812;2024-02-04T06:51:29;12.93;;;1.80;;
52918;SDS011;38793;52.690;6.812;2024-02-04T06:53:55;10.50;;;1.50;;
52918;SDS011;38793;52.690;6.812;2024-02-04T06:56:21;12.83;;;2.20;;
52918;SDS011;38793;52.690;6.812;2024-02-04T06:58:46;13.93;;;1.77;;
52918;SDS011;38793;52.690;6.812;2024-02-04T07:01:12;14.83;;;1.60;;
52918;SDS011;38793;52.690;6.812;2024-02-04T07:03:38;9.00;;;1.23;;
52918;SDS011;38793;52.690;6.812;2024-02-04T07:06:03;20.13;;;1.50;;
52918;SDS011;38793;52.690;6.812;2024-02-04T07:08:29;14.88;;;2.75;;
52918;SDS011;38793;52.690;6.812;2024-02-04T07:10:55;10.20;;;1.02;;
52918;SDS011;38793;52.690;6.812;2024-02-04T07:13:21;19.00;;;2.50;;
52918;SDS011;38793;52.690;6.812;2024-02-04T07:15:47;10.60;;;2.47;;
52918;SDS011;38793;52.690;6.812;2024-02-04T07:18:13;11.75;;;1.75;;
52918;SDS011;38793;52.690;6.812;2024-02-04T07:20:38;15.47;;;2.00;;
52918;SDS011;38793;52.690;6.812;2024-02-04T07:23:05;15.38;;;1.98;;
52918;SDS011;38793;52.690;6.812;2024-02-04T07:25:30;9.82;;;1.52;;
52918;SDS011;38793;52.690;6.812;2024-02-04T07:30:23;14.80;;;1.90;;
52918;SDS011;38793;52.690;6.812;2024-02-04T07:32:49;15.27;;;1.67;;
52918;SDS011;38793;52.690;6.812;2024-02-04T07:35:14;13.77;;;2.73;;
52918;SDS011;38793;52.690;6.812;2024-02-04T07:37:40;16.58;;;2.80;;
52918;SDS011;38793;52.690;6.812;2024-02-04T07:40:06;11.67;;;1.97;;
52918;SDS011;38793;52.690;6.812;2024-02-04T07:42:32;17.25;;;2.47;;
52918;SDS011;38793;52.690;6.812;2024-02-04T07:44:57;13.03;;;2.13;;
52918;SDS011;38793;52.690;6.812;2024-02-04T07:47:23;11.17;;;1.80;;
52918;SDS011;38793;52.690;6.812;2024-02-04T07:49:49;12.60;;;1.80;;
52918;SDS011;38793;52.690;6.812;2024-02-04T07:52:15;18.02;;;2.75;;
52918;SDS011;38793;52.690;6.812;2024-02-04T07:54:41;10.40;;;1.35;;
52918;SDS011;38793;52.690;6.812;2024-02-04T07:57:08;15.13;;;1.70;;
52918;SDS011;38793;52.690;6.812;2024-02-04T08:02:00;19.63;;;1.50;;
52918;SDS011;38793;52.690;6.812;2024-02-04T08:04:26;13.68;;;1.85;;
52918;SDS011;38793;52.690;6.812;2024-02-04T08:06:52;10.88;;;1.95;;
52918;SDS011;38793;52.690;6.812;2024-02-04T08:09:18;14.25;;;1.65;;
52918;SDS011;38793;52.690;6.812;2024-02-04T08:11:43;13.00;;;2.72;;
52918;SDS011;38793;52.690;6.812;2024-02-04T08:14:09;11.43;;;1.57;;
52918;SDS011;38793;52.690;6.812;2024-02-04T08:16:35;12.47;;;1.77;;
52918;SDS011;38793;52.690;6.812;2024-02-04T08:19:00;14.50;;;1.60;;
52918;SDS011;38793;52.690;6.812;2024-02-04T08:21:26;9.83;;;1.93;;
52918;SDS011;38793;52.690;6.812;2024-02-04T08:23:51;13.00;;;2.50;;
52918;SDS011;38793;52.690;6.812;2024-02-04T08:26:17;13.90;;;2.00;;
52918;SDS011;38793;52.690;6.812;2024-02-04T08:28:43;28.00;;;2.30;;
52918;SDS011;38793;52.690;6.812;2024-02-04T08:31:09;17.58;;;2.65;;
52918;SDS011;38793;52.690;6.812;2024-02-04T08:33:34;12.33;;;1.50;;
52918;SDS011;38793;52.690;6.812;2024-02-04T08:36:00;15.10;;;3.53;;
52918;SDS011;38793;52.690;6.812;2024-02-04T08:38:25;11.73;;;2.30;;
52918;SDS011;38793;52.690;6.812;2024-02-04T08:40:51;10.70;;;1.83;;
52918;SDS011;38793;52.690;6.812;2024-02-04T08:43:17;5.70;;;1.83;;
52918;SDS011;38793;52.690;6.812;2024-02-04T08:45:42;7.63;;;1.37;;
52918;SDS011;38793;52.690;6.812;2024-02-04T08:48:08;11.03;;;2.67;;
52918;SDS011;38793;52.690;6.812;2024-02-04T08:50:34;11.80;;;1.87;;
52918;SDS011;38793;52.690;6.812;2024-02-04T08:52:59;9.87;;;1.70;;
52918;SDS011;38793;52.690;6.812;2024-02-04T08:55:25;10.13;;;1.50;;
52918;SDS011;38793;52.690;6.812;2024-02-04T08:57:50;7.57;;;1.20;;
52918;SDS011;38793;52.690;6.812;2024-02-04T09:00:18;5.88;;;1.77;;
52918;SDS011;38793;52.690;6.812;2024-02-04T09:02:45;7.72;;;1.45;;
52918;SDS011;38793;52.690;6.812;2024-02-04T09:05:11;7.47;;;1.13;;
52918;SDS011;38793;52.690;6.812;2024-02-04T09:07:37;6.90;;;0.98;;
52918;SDS011;38793;52.690;6.812;2024-02-04T09:10:04;6.70;;;1.13;;
52918;SDS011;38793;52.690;6.812;2024-02-04T09:12:30;4.60;;;1.65;;
52918;SDS011;38793;52.690;6.812;2024-02-04T09:14:55;17.80;;;1.42;;
52918;SDS011;38793;52.690;6.812;2024-02-04T09:17:22;7.97;;;1.40;;
52918;SDS011;38793;52.690;6.812;2024-02-04T09:19:48;12.53;;;2.10;;
52918;SDS011;38793;52.690;6.812;2024-02-04T09:22:14;11.77;;;1.75;;
52918;SDS011;38793;52.690;6.812;2024-02-04T09:24:39;7.20;;;1.00;;
52918;SDS011;38793;52.690;6.812;2024-02-04T09:27:05;5.53;;;0.90;;
52918;SDS011;38793;52.690;6.812;2024-02-04T09:29:30;6.53;;;0.80;;
52918;SDS011;38793;52.690;6.812;2024-02-04T09:31:56;6.03;;;1.33;;
52918;SDS011;38793;52.690;6.812;2024-02-04T09:34:22;4.53;;;0.70;;
52918;SDS011;38793;52.690;6.812;2024-02-04T09:36:48;10.27;;;1.40;;
52918;SDS011;38793;52.690;6.812;2024-02-04T09:39:13;3.53;;;0.93;;
52918;SDS011;38793;52.690;6.812;2024-02-04T10:08:12;5.70;;;0.98;;
52918;SDS011;38793;52.690;6.812;2024-02-04T10:10:39;4.20;;;1.25;;
52918;SDS011;38793;52.690;6.812;2024-02-04T10:13:07;4.55;;;0.80;;
52918;SDS011;38793;52.690;6.812;2024-02-04T10:15:34;3.03;;;0.75;;
52918;SDS011;38793;52.690;6.812;2024-02-04T10:18:02;7.10;;;0.97;;
52918;SDS011;38793;52.690;6.812;2024-02-04T10:20:29;10.00;;;2.63;;
52918;SDS011;38793;52.690;6.812;2024-02-04T10:22:55;8.07;;;0.90;;
52918;SDS011;38793;52.690;6.812;2024-02-04T10:25:21;7.10;;;1.50;;
52918;SDS011;38793;52.690;6.812;2024-02-04T10:27:46;4.47;;;0.90;;
52918;SDS011;38793;52.690;6.812;2024-02-04T10:30:12;3.75;;;1.45;;
52918;SDS011;38793;52.690;6.812;2024-02-04T10:32:39;2.88;;;0.85;;
52918;SDS011;38793;52.690;6.812;2024-02-04T10:35:05;2.35;;;0.80;;
52918;SDS011;38793;52.690;6.812;2024-02-04T10:37:31;3.88;;;0.95;;
52918;SDS011;38793;52.690;6.812;2024-02-04T10:39:56;1.90;;;1.10;;
52918;SDS011;38793;52.690;6.812;2024-02-04T10:42:24;8.48;;;1.55;;
52918;SDS011;38793;52.690;6.812;2024-02-04T10:44:53;6.38;;;1.08;;
52918;SDS011;38793;52.690;6.812;2024-02-04T10:47:23;6.57;;;0.75;;
52918;SDS011;38793;52.690;6.812;2024-02-04T10:49:50;4.75;;;1.15;;
52918;SDS011;38793;52.690;6.812;2024-02-04T10:52:18;7.07;;;0.80;;
52918;SDS011;38793;52.690;6.812;2024-02-04T10:54:44;3.22;;;0.98;;
52918;SDS011;38793;52.690;6.812;2024-02-04T10:57:12;2.55;;;0.80;;
52918;SDS011;38793;52.690;6.812;2024-02-04T10:59:42;4.45;;;0.52;;
52918;SDS011;38793;52.690;6.812;2024-02-04T11:02:08;5.18;;;0.60;;
52918;SDS011;38793;52.690;6.812;2024-02-04T11:04:36;3.63;;;0.70;;
52918;SDS011;38793;52.690;6.812;2024-02-04T11:07:03;3.47;;;0.90;;
52918;SDS011;38793;52.690;6.812;2024-02-04T11:09:30;6.25;;;1.48;;
52918;SDS011;38793;52.690;6.812;2024-02-04T11:11:57;7.00;;;0.98;;
52918;SDS011;38793;52.690;6.812;2024-02-04T11:14:25;14.13;;;2.70;;
52918;SDS011;38793;52.690;6.812;2024-02-04T11:17:07;5.18;;;1.50;;
52918;SDS011;38793;52.690;6.812;2024-02-04T11:19:53;3.83;;;1.70;;
52918;SDS011;38793;52.690;6.812;2024-02-04T11:28:15;5.90;;;2.20;;
52918;SDS011;38793;52.690;6.812;2024-02-04T11:30:42;6.30;;;2.40;;
52918;SDS011;38793;52.690;6.812;2024-02-04T11:33:10;3.97;;;2.33;;
52918;SDS011;38793;52.690;6.812;2024-02-04T11:35:38;8.80;;;3.40;;
52918;SDS011;38793;52.690;6.812;2024-02-04T11:38:04;9.60;;;2.80;;
52918;SDS011;38793;52.690;6.812;2024-02-04T11:40:30;5.38;;;2.42;;
52918;SDS011;38793;52.690;6.812;2024-02-04T11:45:31;5.65;;;2.38;;
52918;SDS011;38793;52.690;6.812;2024-02-04T11:48:01;6.78;;;2.13;;
52918;SDS011;38793;52.690;6.812;2024-02-04T11:50:27;3.65;;;2.25;;
52918;SDS011;38793;52.690;6.812;2024-02-04T11:55:33;4.78;;;1.23;;
52918;SDS011;38793;52.690;6.812;2024-02-04T11:57:59;2.33;;;1.17;;
52918;SDS011;38793;52.690;6.812;2024-02-04T12:00:26;5.03;;;1.40;;
52918;SDS011;38793;52.690;6.812;2024-02-04T12:03:04;3.87;;;1.67;;
52918;SDS011;38793;52.690;6.812;2024-02-04T12:05:31;6.50;;;0.95;;
52918;SDS011;38793;52.690;6.812;2024-02-04T12:08:02;4.60;;;1.00;;
52918;SDS011;38793;52.690;6.812;2024-02-04T12:10:33;4.20;;;0.90;;
52918;SDS011;38793;52.690;6.812;2024-02-04T12:13:03;4.13;;;1.58;;
52918;SDS011;38793;52.690;6.812;2024-02-04T12:15:31;8.40;;;1.25;;
52918;SDS011;38793;52.690;6.812;2024-02-04T12:18:05;4.78;;;0.85;;
52918;SDS011;38793;52.690;6.812;2024-02-04T12:20:34;5.50;;;0.93;;
52918;SDS011;38793;52.690;6.812;2024-02-04T12:23:04;4.03;;;1.33;;
52918;SDS011;38793;52.690;6.812;2024-02-04T12:25:30;3.80;;;1.10;;
52918;SDS011;38793;52.690;6.812;2024-02-04T12:28:00;4.45;;;1.13;;
52918;SDS011;38793;52.690;6.812;2024-02-04T12:30:30;4.82;;;1.08;;
52918;SDS011;38793;52.690;6.812;2024-02-04T12:32:57;5.90;;;0.93;;
52918;SDS011;38793;52.690;6.812;2024-02-04T12:35:31;8.75;;;0.93;;
52918;SDS011;38793;52.690;6.812;2024-02-04T12:37:57;6.03;;;0.95;;
52918;SDS011;38793;52.690;6.812;2024-02-04T12:40:27;5.55;;;0.60;;
52918;SDS011;38793;52.690;6.812;2024-02-04T12:43:01;1.83;;;0.38;;
52918;SDS011;38793;52.690;6.812;2024-02-04T12:45:28;3.15;;;0.43;;
52918;SDS011;38793;52.690;6.812;2024-02-04T12:47:55;5.38;;;0.73;;
52918;SDS011;38793;52.690;6.812;2024-02-04T12:50:22;3.40;;;0.85;;
52918;SDS011;38793;52.690;6.812;2024-02-04T12:52:48;7.57;;;0.60;;
52918;SDS011;38793;52.690;6.812;2024-02-04T12:55:25;2.88;;;0.50;;
52918;SDS011;38793;52.690;6.812;2024-02-04T13:00:39;2.50;;;0.30;;
52918;SDS011;38793;52.690;6.812;2024-02-04T13:03:06;3.13;;;0.65;;
52918;SDS011;38793;52.690;6.812;2024-02-04T13:05:36;4.35;;;0.35;;
52918;SDS011;38793;52.690;6.812;2024-02-04T13:10:30;5.18;;;0.95;;
52918;SDS011;38793;52.690;6.812;2024-02-04T13:13:07;4.97;;;0.40;;
52918;SDS011;38793;52.690;6.812;2024-02-04T13:15:36;2.58;;;0.47;;
52918;SDS011;38793;52.690;6.812;2024-02-04T13:18:04;1.48;;;0.43;;
52918;SDS011;38793;52.690;6.812;2024-02-04T13:20:30;3.50;;;0.38;;
52918;SDS011;38793;52.690;6.812;2024-02-04T13:22:55;6.93;;;0.73;;
52918;SDS011;38793;52.690;6.812;2024-02-04T13:25:22;5.05;;;0.40;;
52918;SDS011;38793;52.690;6.812;2024-02-04T13:27:48;3.70;;;0.52;;
52918;SDS011;38793;52.690;6.812;2024-02-04T13:30:14;4.88;;;0.30;;
52918;SDS011;38793;52.690;6.812;2024-02-04T13:32:41;3.90;;;0.40;;
52918;SDS011;38793;52.690;6.812;2024-02-04T13:37:35;2.75;;;0.40;;
52918;SDS011;38793;52.690;6.812;2024-02-04T13:40:04;4.22;;;0.50;;
52918;SDS011;38793;52.690;6.812;2024-02-04T13:42:31;4.75;;;0.28;;
52918;SDS011;38793;52.690;6.812;2024-02-04T13:44:58;4.57;;;0.40;;
52918;SDS011;38793;52.690;6.812;2024-02-04T13:47:24;4.03;;;0.60;;
52918;SDS011;38793;52.690;6.812;2024-02-04T13:49:50;2.60;;;0.40;;
52918;SDS011;38793;52.690;6.812;2024-02-04T13:52:15;5.50;;;0.60;;
52918;SDS011;38793;52.690;6.812;2024-02-04T13:54:41;2.37;;;0.30;;
52918;SDS011;38793;52.690;6.812;2024-02-04T13:57:07;1.73;;;0.67;;
52918;SDS011;38793;52.690;6.812;2024-02-04T13:59:32;2.17;;;0.50;;
52918;SDS011;38793;52.690;6.812;2024-02-04T14:01:58;1.67;;;0.30;;
52918;SDS011;38793;52.690;6.812;2024-02-04T14:04:23;5.23;;;0.60;;
52918;SDS011;38793;52.690;6.812;2024-02-04T14:06:49;1.27;;;0.60;;
52918;SDS011;38793;52.690;6.812;2024-02-04T14:09:14;4.77;;;0.90;;
52918;SDS011;38793;52.690;6.812;2024-02-04T14:14:06;4.40;;;0.73;;
52918;SDS011;38793;52.690;6.812;2024-02-04T14:16:32;3.30;;;0.40;;
52918;SDS011;38793;52.690;6.812;2024-02-04T14:18:58;2.67;;;0.57;;
52918;SDS011;38793;52.690;6.812;2024-02-04T14:21:23;2.65;;;0.60;;
52918;SDS011;38793;52.690;6.812;2024-02-04T14:23:49;4.57;;;0.90;;
52918;SDS011;38793;52.690;6.812;2024-02-04T14:26:18;1.85;;;1.10;;
52918;SDS011;38793;52.690;6.812;2024-02-04T14:28:45;4.55;;;1.23;;
52918;SDS011;38793;52.690;6.812;2024-02-04T14:31:10;5.88;;;0.65;;
52918;SDS011;38793;52.690;6.812;2024-02-04T14:33:36;3.67;;;0.80;;
52918;SDS011;38793;52.690;6.812;2024-02-04T14:36:02;6.13;;;0.80;;
52918;SDS011;38793;52.690;6.812;2024-02-04T14:38:29;7.57;;;0.77;;
52918;SDS011;38793;52.690;6.812;2024-02-04T14:40:57;5.15;;;0.47;;
52918;SDS011;38793;52.690;6.812;2024-02-04T14:43:23;3.42;;;0.77;;
52918;SDS011;38793;52.690;6.812;2024-02-04T14:45:49;3.97;;;0.70;;
52918;SDS011;38793;52.690;6.812;2024-02-04T14:48:15;8.00;;;1.20;;
52918;SDS011;38793;52.690;6.812;2024-02-04T14:50:41;1.47;;;0.50;;
52918;SDS011;38793;52.690;6.812;2024-02-04T14:53:06;7.37;;;0.53;;
52918;SDS011;38793;52.690;6.812;2024-02-04T14:55:32;6.83;;;0.70;;
52918;SDS011;38793;52.690;6.812;2024-02-04T14:57:58;4.70;;;1.02;;
52918;SDS011;38793;52.690;6.812;2024-02-04T15:00:24;3.10;;;0.70;;
52918;SDS011;38793;52.690;6.812;2024-02-04T15:02:53;2.78;;;0.52;;
52918;SDS011;38793;52.690;6.812;2024-02-04T15:05:19;3.42;;;0.60;;
52918;SDS011;38793;52.690;6.812;2024-02-04T15:07:47;4.20;;;0.93;;
52918;SDS011;38793;52.690;6.812;2024-02-04T15:12:39;3.33;;;1.13;;
52918;SDS011;38793;52.690;6.812;2024-02-04T15:15:05;7.78;;;0.90;;
52918;SDS011;38793;52.690;6.812;2024-02-04T15:17:32;2.88;;;0.52;;
52918;SDS011;38793;52.690;6.812;2024-02-04T15:19:58;4.22;;;0.88;;
52918;SDS011;38793;52.690;6.812;2024-02-04T15:22:24;5.40;;;1.25;;
52918;SDS011;38793;52.690;6.812;2024-02-04T15:24:50;6.75;;;1.05;;
52918;SDS011;38793;52.690;6.812;2024-02-04T15:27:17;6.03;;;1.77;;
52918;SDS011;38793;52.690;6.812;2024-02-04T15:29:45;4.30;;;1.40;;
52918;SDS011;38793;52.690;6.812;2024-02-04T15:32:12;2.60;;;1.27;;
52918;SDS011;38793;52.690;6.812;2024-02-04T15:34:40;6.93;;;1.65;;
52918;SDS011;38793;52.690;6.812;2024-02-04T15:39:33;9.02;;;3.78;;